createdAt,value
2022-07-29T00:03:47.964Z,1.0
2022-07-29T00:08:47.851Z,1.0
2022-07-29T00:13:50.832Z,1.2
2022-07-29T00:18:47.809Z,0.9
2022-07-29T00:23:47.818Z,1.1
2022-07-29T00:28:47.821Z,1.0
2022-07-29T00:33:47.826Z,1.1
2022-07-29T00:38:47.834Z,1.0
2022-07-29T00:43:47.854Z,1.1
2022-07-29T00:48:47.933Z,1.1
2022-07-29T00:53:47.867Z,0.9
2022-07-29T00:58:47.875Z,0.9
2022-07-29T01:03:47.890Z,0.9
2022-07-29T01:08:47.889Z,0.9
2022-07-29T01:13:47.902Z,0.9
2022-07-29T01:18:47.916Z,1.0
2022-07-29T01:23:47.920Z,1.1
2022-07-29T01:28:47.936Z,1.0
2022-07-29T01:33:47.960Z,1.3
2022-07-29T01:38:47.946Z,1.2
2022-07-29T01:43:47.958Z,1.2
2022-07-29T01:48:48.071Z,1.2
2022-07-29T01:53:47.976Z,1.3
2022-07-29T01:58:47.985Z,1.2
2022-07-29T02:03:47.988Z,1.1
2022-07-29T02:08:48.008Z,1.1
2022-07-29T02:13:48.012Z,0.9
2022-07-29T02:18:48.016Z,0.9
2022-07-29T02:23:51.540Z,1.3
2022-07-29T02:28:48.062Z,1.3
2022-07-29T02:33:48.062Z,1.1
2022-07-29T02:38:48.065Z,1.1
2022-07-29T02:43:48.076Z,1.1
2022-07-29T02:48:48.103Z,1.4
2022-07-29T02:53:48.086Z,1.2
2022-07-29T02:58:48.099Z,1.2
2022-07-29T03:03:48.110Z,1.1
2022-07-29T03:08:48.114Z,1.0
2022-07-29T03:13:48.127Z,1.1
2022-07-29T03:18:48.141Z,1.1
2022-07-29T03:23:48.146Z,1.2
2022-07-29T03:28:48.152Z,1.1
2022-07-29T03:33:48.161Z,1.1
2022-07-29T03:38:48.165Z,0.9
2022-07-29T03:43:49.568Z,1.1
2022-07-29T03:48:48.239Z,1.1
2022-07-29T03:53:48.197Z,1.1
2022-07-29T03:58:48.206Z,1.1
2022-07-29T04:03:48.301Z,1.1
2022-07-29T04:08:48.229Z,0.9
2022-07-29T04:13:48.235Z,0.9
2022-07-29T04:18:48.248Z,1.0
2022-07-29T04:23:53.911Z,1.1
2022-07-29T04:28:48.263Z,1.0
2022-07-29T04:33:48.279Z,1.0
2022-07-29T04:38:48.286Z,1.2
2022-07-29T04:43:48.312Z,1.1
2022-07-29T04:48:48.336Z,1.1
2022-07-29T04:53:48.309Z,1.3
2022-07-29T04:58:48.324Z,1.2
2022-07-29T05:03:48.333Z,1.3
2022-07-29T05:08:48.334Z,1.4
2022-07-29T05:13:48.349Z,1.7
2022-07-29T05:18:48.399Z,1.2
2022-07-29T05:23:48.375Z,1.2
2022-07-29T05:28:48.385Z,1.2
2022-07-29T05:33:48.387Z,1.3
2022-07-29T05:38:48.402Z,1.3
2022-07-29T05:43:48.407Z,1.4
2022-07-29T05:48:48.454Z,1.1
2022-07-29T05:53:48.420Z,1.4
2022-07-29T05:58:48.427Z,1.5
2022-07-29T06:03:48.439Z,1.4
2022-07-29T06:08:48.446Z,1.3
2022-07-29T06:13:48.460Z,1.4
2022-07-29T06:18:48.469Z,1.3
2022-07-29T06:23:48.478Z,1.5
2022-07-29T06:28:48.489Z,1.3
2022-07-29T06:33:48.512Z,1.4
2022-07-29T06:38:51.250Z,1.3
2022-07-29T06:43:51.784Z,1.5
2022-07-29T06:48:48.705Z,1.2
2022-07-29T06:53:59.702Z,1.1
2022-07-29T06:58:48.539Z,1.4
2022-07-29T07:03:48.551Z,1.2
2022-07-29T07:08:48.577Z,1.2
2022-07-29T07:13:48.580Z,1.4
2022-07-29T07:18:48.580Z,1.4
2022-07-29T07:23:48.591Z,1.3
2022-07-29T07:28:48.602Z,1.3
2022-07-29T07:33:48.603Z,1.3
2022-07-29T07:38:48.647Z,1.2
2022-07-29T07:43:48.629Z,1.2
2022-07-29T07:48:48.751Z,1.3
2022-07-29T07:53:48.636Z,1.0
2022-07-29T07:58:48.661Z,1.2
2022-07-29T08:03:48.675Z,1.1
2022-07-29T08:08:48.681Z,1.1
2022-07-29T08:13:48.682Z,1.3
2022-07-29T08:18:48.703Z,1.0
2022-07-29T08:23:52.751Z,1.2
2022-07-29T08:28:48.724Z,1.1
2022-07-29T08:33:48.717Z,1.3
2022-07-29T08:38:48.728Z,0.9
2022-07-29T08:43:48.741Z,1.2
2022-07-29T08:48:48.786Z,1.2
2022-07-29T08:53:48.758Z,1.3
2022-07-29T08:58:52.036Z,1.5
2022-07-29T09:03:48.813Z,1.0
2022-07-29T09:08:48.794Z,1.0
2022-07-29T09:13:48.801Z,1.2
2022-07-29T09:18:48.804Z,1.1
2022-07-29T09:23:48.817Z,1.1
2022-07-29T09:28:48.821Z,1.2
2022-07-29T09:33:48.834Z,1.4
2022-07-29T09:38:48.840Z,1.4
2022-07-29T09:43:48.856Z,1.2
2022-07-29T09:48:48.916Z,1.2
2022-07-29T09:53:48.881Z,1.2
2022-07-29T09:58:48.884Z,1.8
2022-07-29T10:03:48.945Z,1.3
2022-07-29T10:08:48.899Z,1.3
2022-07-29T10:13:48.913Z,1.4
2022-07-29T10:18:48.915Z,1.3
2022-07-29T10:23:48.928Z,1.2
2022-07-29T10:28:48.943Z,1.3
2022-07-29T10:33:48.940Z,1.4
2022-07-29T10:38:48.950Z,1.3
2022-07-29T10:43:51.124Z,1.4
2022-07-29T10:48:49.029Z,1.2
2022-07-29T10:53:48.978Z,1.3
2022-07-29T10:58:49.975Z,1.3
2022-07-29T11:03:52.235Z,1.4
2022-07-29T11:08:49.012Z,1.2
2022-07-29T11:13:49.285Z,1.2
2022-07-29T11:18:49.068Z,1.0
2022-07-29T11:23:49.033Z,1.4
2022-07-29T11:28:49.040Z,1.2
2022-07-29T11:33:55.776Z,1.2
2022-07-29T11:38:49.059Z,1.6
2022-07-29T11:43:50.688Z,1.4
2022-07-29T11:48:49.121Z,1.6
2022-07-29T11:53:49.095Z,1.4
2022-07-29T11:58:49.094Z,1.3
2022-07-29T12:03:49.182Z,1.3
2022-07-29T12:08:49.116Z,1.3
2022-07-29T12:13:49.408Z,1.4
2022-07-29T12:18:49.141Z,1.3
2022-07-29T12:23:49.152Z,1.1
2022-07-29T12:28:49.172Z,1.4
2022-07-29T12:33:49.177Z,1.3
2022-07-29T12:38:49.180Z,1.4
2022-07-29T12:43:49.180Z,1.3
2022-07-29T12:48:49.285Z,1.3
2022-07-29T12:53:49.209Z,1.3
2022-07-29T12:58:51.268Z,1.2
2022-07-29T13:03:57.311Z,1.3
2022-07-29T13:08:49.230Z,1.1
2022-07-29T13:13:49.248Z,1.5
2022-07-29T13:18:49.267Z,1.5
2022-07-29T13:23:49.257Z,1.3
2022-07-29T13:28:49.278Z,1.4
2022-07-29T13:33:49.285Z,1.3
2022-07-29T13:38:49.288Z,1.4
2022-07-29T13:43:50.136Z,1.4
2022-07-29T13:48:49.352Z,1.4
2022-07-29T13:53:49.319Z,1.3
2022-07-29T13:58:49.351Z,1.2
2022-07-29T14:03:49.334Z,1.3
2022-07-29T14:08:49.362Z,1.3
2022-07-29T14:13:49.363Z,1.2
2022-07-29T14:18:49.372Z,1.2
2022-07-29T14:23:49.379Z,1.3
2022-07-29T14:28:49.406Z,1.4
2022-07-29T14:33:49.481Z,1.4
2022-07-29T14:38:49.406Z,1.2
2022-07-29T14:43:49.438Z,1.3
2022-07-29T14:48:49.484Z,1.3
2022-07-29T14:53:49.443Z,1.3
2022-07-29T14:58:51.632Z,1.5
2022-07-29T15:03:49.454Z,1.4
2022-07-29T15:08:49.465Z,1.2
2022-07-29T15:13:49.475Z,1.3
2022-07-29T15:18:49.478Z,1.1
2022-07-29T15:23:49.501Z,1.3
2022-07-29T15:28:49.498Z,1.1
2022-07-29T15:33:50.359Z,1.4
2022-07-29T15:38:49.519Z,1.3
2022-07-29T15:43:49.520Z,1.2
2022-07-29T15:48:49.577Z,1.4
2022-07-29T15:53:53.564Z,1.4
2022-07-29T15:58:49.555Z,1.4
2022-07-29T16:03:49.622Z,1.5
2022-07-29T16:08:49.589Z,1.5
2022-07-29T16:13:49.583Z,1.4
2022-07-29T16:18:49.592Z,1.5
2022-07-29T16:23:49.606Z,1.7
2022-07-29T16:28:49.612Z,1.6
2022-07-29T16:33:54.851Z,1.7
2022-07-29T16:38:49.630Z,1.5
2022-07-29T16:43:49.634Z,1.5
2022-07-29T16:48:49.737Z,1.7
2022-07-29T16:53:50.417Z,1.7
2022-07-29T16:58:49.669Z,1.9
2022-07-29T17:03:49.691Z,1.6
2022-07-29T17:08:49.686Z,1.7
2022-07-29T17:13:49.692Z,1.6
2022-07-29T17:18:49.710Z,1.9
2022-07-29T17:23:49.723Z,1.6
2022-07-29T17:28:49.728Z,1.7
2022-07-29T17:33:49.735Z,2.0
2022-07-29T17:38:49.753Z,1.7
2022-07-29T17:43:49.772Z,1.7
2022-07-29T17:48:49.818Z,1.9
2022-07-29T17:53:49.788Z,1.8
2022-07-29T17:58:49.803Z,1.8
2022-07-29T18:03:49.795Z,1.7
2022-07-29T18:08:49.812Z,1.7
2022-07-29T18:13:49.823Z,1.8
2022-07-29T18:18:49.829Z,2.0
2022-07-29T18:23:49.869Z,1.8
2022-07-29T18:28:49.852Z,1.8
2022-07-29T18:33:49.857Z,1.9
2022-07-29T18:38:49.860Z,1.9
2022-07-29T18:43:49.876Z,1.8
2022-07-29T18:48:49.969Z,1.9
2022-07-29T18:53:49.894Z,1.7
2022-07-29T18:58:49.896Z,1.7
2022-07-29T19:03:49.933Z,1.7
2022-07-29T19:08:49.923Z,2.0
2022-07-29T19:13:49.930Z,2.0
2022-07-29T19:18:49.950Z,2.0
2022-07-29T19:28:49.958Z,1.9
2022-07-29T19:33:49.971Z,1.8
2022-07-29T19:38:49.975Z,1.8
2022-07-29T19:43:52.871Z,1.8
2022-07-29T19:48:50.102Z,1.9
2022-07-29T19:53:50.004Z,1.8
2022-07-29T19:58:50.011Z,1.9
2022-07-29T20:03:50.021Z,1.8
2022-07-29T20:08:50.034Z,1.7
2022-07-29T20:13:50.047Z,1.9
2022-07-29T20:18:50.056Z,1.9
2022-07-29T20:23:50.073Z,1.8
2022-07-29T20:28:50.072Z,1.7
2022-07-29T20:33:50.086Z,1.8
2022-07-29T20:38:50.098Z,1.7
2022-07-29T20:43:50.102Z,1.5
2022-07-29T20:48:50.176Z,1.6
2022-07-29T20:53:50.112Z,1.6
2022-07-29T20:58:50.130Z,1.5
2022-07-29T21:03:50.153Z,1.7
2022-07-29T21:08:50.139Z,1.6
2022-07-29T21:13:50.178Z,1.5
2022-07-29T21:18:50.157Z,1.5
2022-07-29T21:23:50.171Z,1.5
2022-07-29T21:28:50.540Z,1.5
2022-07-29T21:33:50.198Z,1.7
2022-07-29T21:38:50.195Z,1.5
2022-07-29T21:43:50.211Z,1.6
2022-07-29T21:48:50.262Z,1.7
2022-07-29T21:53:50.224Z,1.7
2022-07-29T21:58:50.244Z,1.6
2022-07-29T22:03:50.251Z,1.6
2022-07-29T22:08:50.256Z,1.6
2022-07-29T22:13:50.265Z,1.8
2022-07-29T22:18:50.272Z,1.8
2022-07-29T22:23:50.281Z,1.8
2022-07-29T22:28:50.291Z,1.8
2022-07-29T22:33:50.296Z,1.7
2022-07-29T22:38:52.108Z,1.9
2022-07-29T22:43:50.332Z,1.5
2022-07-29T22:48:50.413Z,1.8
2022-07-29T22:53:50.351Z,1.8
2022-07-29T22:58:50.370Z,1.7
2022-07-29T23:03:51.172Z,1.7
2022-07-29T23:08:50.369Z,1.6
2022-07-29T23:13:50.370Z,1.8
2022-07-29T23:18:50.385Z,1.8
2022-07-29T23:23:50.392Z,1.9
2022-07-29T23:28:50.412Z,1.8
2022-07-29T23:33:50.413Z,1.8
2022-07-29T23:38:50.415Z,1.9
2022-07-29T23:43:50.433Z,1.8
2022-07-29T23:48:50.514Z,1.6
2022-07-29T23:53:53.600Z,1.8
2022-07-29T23:58:50.459Z,1.7
